AirNav   Everest Fuels
 
 400 users online  

IL33 White Oak Resources Heliport
Mc Leansboro, Illinois, USA

GOING TO MC LEANSBORO?


FAA INFORMATION EFFECTIVE 18 JUNE 2020

Location

FAA Identifier: IL33
Lat/Long: 38-10-14.4000N 088-36-02.5000W
38-10.240000N 088-36.041667W
38.1706667,-88.6006944
(estimated)
Elevation: 418 ft. / 127 m
From city: 6 miles NW of MC LEANSBORO, IL
Time zone: UTC -5 (UTC -6 during Standard Time)
Zip code: 62828

Heliport Operations

Heliport use: Private use. Permission required prior to landing
Activation date: 01/2016
Control tower: no
ARTCC: KANSAS CITY CENTER
FSS: SAINT LOUIS FLIGHT SERVICE STATION
Attendance: 
Wind indicator: yes
Segmented circle: no

Heliport Communications

WX AWOS-3PT at MVN (15 nm NW): 118.2 (618-242-7933)
WX AWOS-3 at FWC (15 nm NE): 119.425 (618-847-4709)

Nearby radio navigation aids

VOR radial/distance  VOR name  Freq  Var
ENLr116/30.2CENTRALIA VORTAC115.0004E
SAMr229/30.7SAMSVILLE VOR/DME116.6003E
MWAr034/31.7MARION VOR/DME110.4004E

 
NDB name  Hdg/Dist  Freq  Var  ID
WAYNE COUNTY217/15.525701WFWC ..-. .-- -.-.
OLNEY214/38.527203WOLY --- .-.. -.--

Heliport Services

Runway Information

Helipad H1

Dimensions: 40 x 40 ft. / 12 x 12 m
Surface: concrete
Traffic pattern: leftleft

Heliport Ownership and Management from official FAA records

Ownership: Privately-owned
Owner: WHITE OAK RESOURCES LLC
18033 COUNTY RD 500 EAST
DAHLGREN, IL 62828
Phone (618) 648-2613
Manager: CHRIS RUSSELL
18033 COUNTY RD 500 EAST
DAHLGREN, IL 62828
Phone (618) 648-2613

Additional Remarks

FOR CD CTC KANSAS CITY ARTCC AT 913-254-8508.

Instrument Procedures

There are no published instrument procedures at IL33.

Some nearby airports with instrument procedures:

KMVN - Mount Vernon Airport (15 nm NW)
KFWC - Fairfield Municipal Airport (15 nm NE)
H96 - Benton Municipal Airport (19 nm SW)
KHSB - Harrisburg-Raleigh Airport (22 nm S)
KCUL - Carmi Municipal Airport (23 nm E)
 
Loc | Ops | Rwys | IFR | FBO | Links
Com | Nav | Svcs | Stats | Notes
Aerial photo
No photo
 
Airport distance calculator
Flying to White Oak Resources Heliport? Find the distance to fly.

From to IL33

Sunrise and sunset
Times for 11-Jul-2020
 Local
(UTC-5)
 Zulu
(UTC)
Morning civil twilight05:1110:11
Sunrise05:4210:42
Sunset20:1801:18
Evening civil twilight20:4901:49

Current date and time
Zulu (UTC)  11-Jul-2020 10:32:43
Local (UTC-5)  11-Jul-2020 05:32:43
 
METAR
KMVN 
15nm NW 
110956Z AUTO 00000KT 10SM CLR 18/18 A2998 RMK AO2 SLP150 T01830183
KFWC 
15nm NE 
111015Z AUTO 00000KT 10SM CLR 19/19 A2996 RMK AO1 T01880188
KHSB 
21nm S 
111015Z AUTO 00000KT 10SM CLR 18/18 A2998 RMK AO2 T01810177
KCUL 
23nm E 
111015Z AUTO 25003KT 10SM CLR 18/18 A2996 RMK AO2
TAF
KMVN 
15nm NW 
110845Z 1109/1206 VRB03KT P6SM MIFG SKC FM111300 24006KT P6SM FEW060 SCT250 FM120000 20003KT P6SM SCT100
NOTAMs
Click for the latest NOTAMs
NOTAMs are issued by the DoD/FAA and will open in a separate window not controlled by AirNav.

 

 
 

Would you like to see your business listed on this page?

 If your business provides an interesting product or service to pilots, flight crews, aircraft, or users of the White Oak Resources Heliport, you should consider listing it here.  To start the listing process, click on the button below
 
Add a business
 

Other Pages about White Oak Resources Heliport

Update a link
 
Copyright © AirNav, LLC. All rights reserved. Privacy Policy  Contact